Time;durP1;ratioP1;P1;durP2;ratioP2;P2;SDS_P1;SDS_P2;PMS_P1;PMS_P2;Temp;Humidity;BMP_temperature;BMP_pressure;BME280_temperature;BME280_humidity;BME280_pressure;Samples;Min_cycle;Max_cycle;Signal;HPM_P1;HPM_P2
2023/07/06 00:01:42;;;;;;;3.45;1.58;;;18.60;99.90;;;;;;4993741;28;20112;-71
2023/07/06 00:04:09;;;;;;;4.55;1.90;;;18.60;99.90;;;;;;4992607;28;20084;-71
2023/07/06 00:06:36;;;;;;;3.50;2.08;;;18.60;99.90;;;;;;4993741;28;20105;-71
2023/07/06 00:09:02;;;;;;;2.67;1.40;;;18.50;99.90;;;;;;4993821;28;20034;-71
2023/07/06 00:11:35;;;;;;;5.47;2.15;;;18.50;99.90;;;;;;4993152;28;20084;-71
2023/07/06 00:14:01;;;;;;;3.72;1.60;;;18.40;99.90;;;;;;4993567;28;20081;-71
2023/07/06 00:16:27;;;;;;;3.83;1.90;;;18.40;99.90;;;;;;4993712;28;20061;-71
2023/07/06 00:18:52;;;;;;;5.63;1.90;;;18.40;99.90;;;;;;4993867;28;20465;-71
2023/07/06 00:21:18;;;;;;;3.28;1.52;;;18.30;99.90;;;;;;4993568;28;20481;-71
2023/07/06 00:23:43;;;;;;;4.35;1.88;;;18.10;99.90;;;;;;4993698;28;20030;-71
2023/07/06 00:26:10;;;;;;;3.90;1.30;;;18.20;99.90;;;;;;4993582;28;20030;-71
2023/07/06 00:28:36;;;;;;;3.35;1.60;;;18.20;99.90;;;;;;4993102;28;20054;-71
2023/07/06 00:31:10;;;;;;;4.05;1.67;;;18.20;99.90;;;;;;4993802;28;20035;-71
2023/07/06 00:33:36;;;;;;;4.95;1.80;;;18.30;99.90;;;;;;4993702;28;20022;-71
2023/07/06 00:36:03;;;;;;;4.55;2.10;;;18.20;99.90;;;;;;4993393;28;20454;-71
2023/07/06 00:38:29;;;;;;;6.00;2.42;;;18.20;99.90;;;;;;4993241;28;20026;-71
2023/07/06 00:40:57;;;;;;;4.57;1.50;;;18.20;99.90;;;;;;4993354;28;20030;-71
2023/07/06 00:43:29;;;;;;;4.20;1.80;;;18.10;99.90;;;;;;4993477;28;20023;-71
2023/07/06 00:46:06;;;;;;;4.85;1.63;;;18.30;99.90;;;;;;4993287;28;20030;-71
2023/07/06 00:48:37;;;;;;;3.33;1.58;;;18.30;99.90;;;;;;4993317;28;20018;-71
2023/07/06 00:51:07;;;;;;;4.20;1.70;;;18.40;99.90;;;;;;4993025;28;20378;-71
2023/07/06 00:53:38;;;;;;;4.13;1.88;;;18.40;99.90;;;;;;4992218;28;20033;-71
2023/07/06 00:56:07;;;;;;;4.55;1.63;;;18.30;99.90;;;;;;4993592;28;20045;-71
2023/07/06 00:58:45;;;;;;;4.13;1.90;;;18.30;99.90;;;;;;4993337;28;20031;-71
2023/07/06 01:01:13;;;;;;;4.55;1.83;;;18.30;99.90;;;;;;4993098;28;20026;-71
2023/07/06 01:03:44;;;;;;;3.97;1.90;;;18.20;99.90;;;;;;4993022;28;20034;-71
2023/07/06 01:06:31;;;;;;;5.88;1.85;;;18.10;99.90;;;;;;4992777;28;20034;-71
2023/07/06 01:08:57;;;;;;;6.68;2.35;;;18.10;99.90;;;;;;4993174;28;20031;-71
2023/07/06 01:11:24;;;;;;;3.97;2.00;;;18.10;99.90;;;;;;4993412;28;20054;-71
2023/07/06 01:13:52;;;;;;;4.60;2.20;;;18.00;99.90;;;;;;4993202;28;20029;-71
2023/07/06 01:16:26;;;;;;;4.75;2.47;;;18.00;99.90;;;;;;4992827;28;20030;-71
2023/07/06 01:19:03;;;;;;;7.43;2.25;;;18.00;99.90;;;;;;4993141;28;20037;-71
2023/07/06 01:21:53;;;;;;;5.57;2.08;;;17.70;99.90;;;;;;4993119;28;20022;-71
2023/07/06 01:24:51;;;;;;;3.20;1.83;;;17.70;99.90;;;;;;4995792;28;20496;-71
2023/07/06 01:27:29;;;;;;;5.15;1.85;;;17.90;99.90;;;;;;4996629;28;20153;-71
2023/07/06 01:30:14;;;;;;;4.53;1.80;;;18.00;99.90;;;;;;4996666;28;20499;-71
2023/07/06 01:32:48;;;;;;;2.95;1.30;;;18.10;99.90;;;;;;4996797;28;20110;-71
2023/07/06 01:35:27;;;;;;;3.03;1.30;;;18.00;99.90;;;;;;4996115;28;20563;-71
2023/07/06 01:37:53;;;;;;;5.75;1.52;;;17.80;99.90;;;;;;4996544;28;20077;-71
2023/07/06 01:40:18;;;;;;;4.82;2.08;;;17.70;99.90;;;;;;4996425;28;20030;-71
2023/07/06 01:42:44;;;;;;;5.43;1.70;;;17.70;99.90;;;;;;4996312;28;20113;-71
2023/07/06 01:45:20;;;;;;;4.93;1.70;;;17.80;99.90;;;;;;4996474;28;20042;-71
2023/07/06 01:47:51;;;;;;;4.13;1.30;;;17.80;99.90;;;;;;4996349;28;20459;-71
2023/07/06 01:50:19;;;;;;;4.00;1.42;;;17.70;99.90;;;;;;4996204;28;20492;-71
2023/07/06 01:53:03;;;;;;;4.32;1.55;;;17.50;99.90;;;;;;4996135;28;20026;-71
2023/07/06 01:55:46;;;;;;;3.47;1.33;;;17.40;99.90;;;;;;4996191;28;20035;-71
2023/07/06 01:58:15;;;;;;;4.13;1.75;;;17.30;99.90;;;;;;4996034;28;20110;-71
2023/07/06 02:00:47;;;;;;;3.33;1.42;;;17.30;99.90;;;;;;4995980;28;20030;-71
2023/07/06 02:03:14;;;;;;;3.60;1.40;;;17.40;99.90;;;;;;4996039;28;20031;-71
2023/07/06 02:05:40;;;;;;;4.20;1.30;;;17.20;99.90;;;;;;4996163;28;20116;-71
2023/07/06 02:08:08;;;;;;;4.10;1.45;;;17.30;99.90;;;;;;4996082;28;20476;-71
2023/07/06 02:10:34;;;;;;;4.95;1.40;;;17.00;99.90;;;;;;4995618;28;20030;-71
2023/07/06 02:13:00;;;;;;;5.47;2.10;;;17.20;99.90;;;;;;4995988;28;20126;-71
2023/07/06 02:15:27;;;;;;;3.60;1.52;;;17.40;99.90;;;;;;4995894;28;20488;-71
2023/07/06 02:17:55;;;;;;;3.70;1.58;;;17.10;99.90;;;;;;4995939;28;20030;-71
2023/07/06 02:20:21;;;;;;;2.92;1.52;;;16.90;99.90;;;;;;4995792;28;20023;-71
2023/07/06 02:22:47;;;;;;;5.40;1.75;;;17.00;99.90;;;;;;4995680;28;20084;-71
2023/07/06 02:25:13;;;;;;;3.90;1.40;;;17.20;99.90;;;;;;4995559;28;20104;-71
2023/07/06 02:27:39;;;;;;;4.43;1.50;;;17.30;99.90;;;;;;4995531;28;20127;-71
2023/07/06 02:30:06;;;;;;;4.13;1.45;;;17.50;99.90;;;;;;4995789;28;20026;-71
2023/07/06 02:32:32;;;;;;;5.05;1.38;;;17.20;99.90;;;;;;4995569;28;20049;-71
2023/07/06 02:34:58;;;;;;;4.60;1.85;;;17.10;99.90;;;;;;4994586;28;20477;-71
2023/07/06 02:37:24;;;;;;;2.40;1.30;;;17.20;99.90;;;;;;4995424;28;20088;-71
2023/07/06 02:39:50;;;;;;;2.85;1.35;;;17.20;99.90;;;;;;4995290;28;20026;-71
2023/07/06 02:42:17;;;;;;;4.40;1.83;;;17.30;99.90;;;;;;4995400;28;20088;-71
2023/07/06 02:44:43;;;;;;;5.22;2.25;;;17.40;99.90;;;;;;4995443;28;20062;-71
2023/07/06 02:47:10;;;;;;;4.10;1.60;;;17.50;99.90;;;;;;4995413;28;20058;-71
2023/07/06 02:49:36;;;;;;;2.83;1.23;;;17.60;99.90;;;;;;4995127;28;20035;-71
2023/07/06 02:52:02;;;;;;;4.55;1.58;;;17.60;99.90;;;;;;4994919;28;20480;-71
2023/07/06 02:54:28;;;;;;;5.72;1.50;;;17.60;99.90;;;;;;4995399;28;20073;-71
2023/07/06 02:56:55;;;;;;;2.28;1.05;;;17.60;99.90;;;;;;4976311;28;20070;-71
2023/07/06 02:59:21;;;;;;;3.85;1.10;;;17.50;99.90;;;;;;4975663;28;20034;-71
2023/07/06 03:01:47;;;;;;;6.80;1.40;;;17.50;99.90;;;;;;4974109;28;20037;-71
2023/07/06 03:04:13;;;;;;;3.92;1.63;;;17.70;99.90;;;;;;4983029;28;20038;-71
2023/07/06 03:06:39;;;;;;;2.58;1.17;;;17.70;99.90;;;;;;4990198;28;20034;-71
2023/07/06 03:09:07;;;;;;;3.53;1.25;;;17.60;99.90;;;;;;4989815;28;20641;-72
2023/07/06 03:11:33;;;;;;;2.60;1.20;;;17.60;99.90;;;;;;4989755;28;20565;-71
2023/07/06 03:13:59;;;;;;;3.65;1.13;;;17.60;99.90;;;;;;4989761;28;20113;-72
2023/07/06 03:16:29;;;;;;;3.85;1.58;;;17.60;99.90;;;;;;4989660;28;20030;-71
2023/07/06 03:18:54;;;;;;;3.90;1.60;;;17.60;99.90;;;;;;4986531;28;20035;-71
2023/07/06 03:21:20;;;;;;;3.30;1.40;;;17.60;99.90;;;;;;4987122;28;20041;-71
2023/07/06 03:23:49;;;;;;;3.25;1.33;;;17.40;99.90;;;;;;4988382;28;20029;-71
2023/07/06 03:26:15;;;;;;;4.05;1.20;;;17.40;99.90;;;;;;4989719;28;20032;-71
2023/07/06 03:28:41;;;;;;;2.97;1.02;;;17.40;99.90;;;;;;4989818;28;20086;-72
2023/07/06 03:31:07;;;;;;;3.25;1.60;;;17.20;99.90;;;;;;4989996;28;20416;-71
2023/07/06 03:33:33;;;;;;;4.65;1.30;;;17.10;99.90;;;;;;4990137;28;20481;-71
2023/07/06 03:35:59;;;;;;;2.58;1.00;;;17.00;99.90;;;;;;4989749;28;20064;-71
2023/07/06 03:38:27;;;;;;;2.78;1.20;;;16.80;99.90;;;;;;4989199;28;20109;-71
2023/07/06 03:40:54;;;;;;;3.47;1.40;;;16.90;99.90;;;;;;4988976;28;20030;-71
2023/07/06 03:43:20;;;;;;;4.20;1.38;;;17.10;99.90;;;;;;4989064;28;20030;-71
2023/07/06 03:45:48;;;;;;;3.10;1.48;;;17.10;99.90;;;;;;4989809;28;20080;-71
2023/07/06 03:48:14;;;;;;;5.03;1.77;;;17.30;99.90;;;;;;4989781;28;20043;-71
2023/07/06 03:50:40;;;;;;;2.80;1.48;;;17.40;99.90;;;;;;4989852;28;20034;-71
2023/07/06 03:53:07;;;;;;;2.58;1.10;;;17.30;99.90;;;;;;4990116;28;20097;-71
2023/07/06 03:55:33;;;;;;;3.90;1.50;;;17.20;99.90;;;;;;4989393;28;20026;-71
2023/07/06 03:58:00;;;;;;;3.97;1.40;;;17.00;99.90;;;;;;4989856;28;20472;-71
2023/07/06 04:00:28;;;;;;;3.28;1.30;;;17.10;99.90;;;;;;4989521;28;20027;-71
2023/07/06 04:02:57;;;;;;;5.03;1.40;;;17.10;99.90;;;;;;4989505;28;20429;-71
2023/07/06 04:05:29;;;;;;;3.80;1.65;;;17.20;99.90;;;;;;4986291;28;20066;-71
2023/07/06 04:07:54;;;;;;;3.67;1.33;;;17.20;99.90;;;;;;4986319;28;20146;-71
2023/07/06 04:10:21;;;;;;;2.72;1.15;;;17.30;99.90;;;;;;4986719;28;20113;-71
2023/07/06 04:12:48;;;;;;;5.60;1.40;;;17.40;99.90;;;;;;4989401;28;20062;-71
2023/07/06 04:15:17;;;;;;;4.70;1.30;;;17.60;99.90;;;;;;4989436;28;20473;-71
2023/07/06 04:17:43;;;;;;;4.38;1.30;;;17.70;99.90;;;;;;4989123;28;20113;-71
2023/07/06 04:20:20;;;;;;;2.78;1.25;;;17.70;99.90;;;;;;4989467;28;20038;-71
2023/07/06 04:22:48;;;;;;;3.65;1.73;;;17.80;99.90;;;;;;4989596;28;20104;-71
2023/07/06 04:25:15;;;;;;;4.78;1.73;;;17.80;99.90;;;;;;4989557;28;20034;-71
2023/07/06 04:27:42;;;;;;;2.97;1.50;;;17.90;99.90;;;;;;4989069;28;20070;-71
2023/07/06 04:30:11;;;;;;;4.25;1.58;;;18.00;99.90;;;;;;4989019;28;20102;-72
2023/07/06 04:32:36;;;;;;;3.78;1.40;;;18.00;99.90;;;;;;4989183;28;20026;-71
2023/07/06 04:35:03;;;;;;;6.30;1.58;;;18.00;99.90;;;;;;4986670;28;20485;-71
2023/07/06 04:37:29;;;;;;;3.03;1.45;;;17.80;99.90;;;;;;4986233;28;20042;-71
2023/07/06 04:39:55;;;;;;;2.95;1.35;;;17.80;99.90;;;;;;4988015;28;20080;-71
2023/07/06 04:42:20;;;;;;;3.70;1.25;;;17.80;99.90;;;;;;4988737;28;20445;-71
2023/07/06 04:44:47;;;;;;;5.68;1.60;;;17.80;99.90;;;;;;4988692;28;20042;-71
2023/07/06 04:47:13;;;;;;;4.30;2.15;;;17.70;99.90;;;;;;4988771;28;20061;-71
2023/07/06 04:49:38;;;;;;;3.63;1.58;;;17.70;99.90;;;;;;4988830;28;20384;-71
2023/07/06 04:52:06;;;;;;;4.45;1.52;;;17.80;99.90;;;;;;4989019;28;20033;-71
2023/07/06 04:54:31;;;;;;;3.17;1.48;;;17.70;99.90;;;;;;4988820;28;20042;-71
2023/07/06 04:56:58;;;;;;;4.40;2.08;;;17.60;99.90;;;;;;4989034;28;20462;-71
2023/07/06 04:59:24;;;;;;;5.25;1.38;;;17.50;99.90;;;;;;4992113;28;20504;-71
2023/07/06 05:01:51;;;;;;;4.32;1.42;;;17.60;99.90;;;;;;4991657;28;20037;-71
2023/07/06 05:04:17;;;;;;;4.07;1.98;;;17.50;99.90;;;;;;4989810;28;20026;-71
2023/07/06 05:06:43;;;;;;;4.43;1.80;;;17.50;99.90;;;;;;4989677;28;20038;-72
2023/07/06 05:09:09;;;;;;;4.78;1.27;;;17.50;99.90;;;;;;4990301;28;20031;-71
2023/07/06 05:11:35;;;;;;;4.47;1.73;;;17.60;99.90;;;;;;4990205;28;20168;-71
2023/07/06 05:14:01;;;;;;;3.92;1.88;;;17.60;99.90;;;;;;4989438;28;20060;-71
2023/07/06 05:16:27;;;;;;;6.25;1.70;;;17.50;99.90;;;;;;4989403;28;20370;-71
2023/07/06 05:18:52;;;;;;;3.95;1.60;;;17.60;99.90;;;;;;4989436;28;20136;-71
2023/07/06 05:21:18;;;;;;;3.33;1.40;;;17.60;99.90;;;;;;4989241;28;20045;-71
2023/07/06 05:23:44;;;;;;;5.68;1.65;;;17.60;99.90;;;;;;4989249;28;20039;-71
2023/07/06 05:26:10;;;;;;;5.20;1.25;;;17.60;99.90;;;;;;4989449;28;20069;-71
2023/07/06 05:28:35;;;;;;;4.07;1.77;;;17.70;99.90;;;;;;4989023;28;20093;-71
2023/07/06 05:31:03;;;;;;;4.30;1.40;;;17.60;99.90;;;;;;4989485;28;20098;-71
2023/07/06 05:33:30;;;;;;;4.10;1.40;;;17.50;99.90;;;;;;4989313;28;20022;-71
2023/07/06 05:35:56;;;;;;;3.10;1.30;;;17.50;99.90;;;;;;4989118;28;20388;-72
2023/07/06 05:38:21;;;;;;;4.13;1.38;;;17.50;99.90;;;;;;4989519;28;20076;-71
2023/07/06 05:40:47;;;;;;;4.95;1.83;;;17.40;99.90;;;;;;4988999;28;20026;-71
2023/07/06 05:43:13;;;;;;;3.10;1.60;;;17.40;99.90;;;;;;4988956;28;20042;-71
2023/07/06 05:45:38;;;;;;;4.47;1.20;;;17.40;99.90;;;;;;4989068;28;20038;-71
2023/07/06 05:48:04;;;;;;;3.95;1.38;;;17.40;99.90;;;;;;4989513;28;20110;-71
2023/07/06 05:50:30;;;;;;;4.43;1.85;;;17.50;99.90;;;;;;4988997;28;20069;-72
2023/07/06 05:52:56;;;;;;;4.07;1.40;;;17.60;99.90;;;;;;4988984;28;20057;-72
2023/07/06 05:55:21;;;;;;;5.10;1.50;;;17.60;99.90;;;;;;4989163;28;20042;-72
2023/07/06 05:57:47;;;;;;;2.80;1.45;;;17.50;99.90;;;;;;4988645;28;20034;-72
2023/07/06 06:00:15;;;;;;;6.40;2.05;;;17.60;99.90;;;;;;4989094;28;20030;-71
2023/07/06 06:02:44;;;;;;;6.28;1.67;;;17.60;99.90;;;;;;4988895;28;20045;-72
2023/07/06 06:05:13;;;;;;;5.03;2.50;;;17.60;99.90;;;;;;4988877;28;20081;-71
2023/07/06 06:07:40;;;;;;;6.47;2.85;;;17.50;99.90;;;;;;4988928;28;20038;-72
2023/07/06 06:10:06;;;;;;;5.25;2.28;;;17.30;99.90;;;;;;4987683;28;20058;-71
2023/07/06 06:12:33;;;;;;;6.05;2.13;;;17.50;99.90;;;;;;4988254;28;20492;-71
2023/07/06 06:14:59;;;;;;;4.68;2.50;;;17.70;99.90;;;;;;4988750;28;20031;-72
2023/07/06 06:17:28;;;;;;;6.82;2.72;;;17.80;99.90;;;;;;4989010;28;20050;-71
2023/07/06 06:19:54;;;;;;;8.30;2.80;;;17.90;99.90;;;;;;4988829;28;20030;-71
2023/07/06 06:22:20;;;;;;;8.32;2.58;;;17.50;99.90;;;;;;4988418;28;20035;-72
2023/07/06 06:24:46;;;;;;;5.28;2.05;;;17.30;99.90;;;;;;4988579;28;20117;-72
2023/07/06 06:27:14;;;;;;;3.45;1.70;;;17.10;99.90;;;;;;4988170;28;20034;-71
2023/07/06 06:29:42;;;;;;;3.85;1.90;;;17.10;99.90;;;;;;4988347;28;20034;-71
2023/07/06 06:32:08;;;;;;;3.13;1.42;;;17.20;99.90;;;;;;4988171;28;20038;-71
2023/07/06 06:34:35;;;;;;;4.10;1.92;;;17.20;99.90;;;;;;4988315;28;20031;-72
2023/07/06 06:37:03;;;;;;;3.85;1.45;;;17.30;99.90;;;;;;4988187;28;20045;-72
2023/07/06 06:39:29;;;;;;;3.40;1.70;;;17.50;99.90;;;;;;4988455;28;20484;-71
2023/07/06 06:41:55;;;;;;;3.08;1.70;;;17.50;99.90;;;;;;4988258;28;20076;-72
2023/07/06 06:44:21;;;;;;;10.93;2.90;;;17.70;99.90;;;;;;4988103;28;20030;-71
2023/07/06 06:46:47;;;;;;;3.35;1.90;;;17.70;99.90;;;;;;4988244;28;20029;-71
2023/07/06 06:49:13;;;;;;;6.25;2.08;;;17.80;99.90;;;;;;4987944;28;20038;-72
2023/07/06 06:51:39;;;;;;;4.15;1.83;;;17.70;99.90;;;;;;4987621;28;20465;-72
2023/07/06 06:54:05;;;;;;;3.78;2.08;;;17.70;99.90;;;;;;4987392;28;20088;-72
2023/07/06 06:56:32;;;;;;;3.75;1.23;;;17.70;99.90;;;;;;4988139;28;20109;-71
2023/07/06 06:58:58;;;;;;;3.97;1.50;;;17.50;99.90;;;;;;4988118;28;20022;-72
2023/07/06 07:01:25;;;;;;;5.25;2.00;;;17.60;99.90;;;;;;4987768;28;20030;-72
2023/07/06 07:03:51;;;;;;;3.90;1.77;;;17.50;99.90;;;;;;4990589;28;20048;-71
2023/07/06 07:06:17;;;;;;;3.72;1.52;;;17.70;99.90;;;;;;4990419;28;20461;-71
2023/07/06 07:08:49;;;;;;;4.00;1.42;;;17.70;99.90;;;;;;4990419;28;20107;-71
2023/07/06 07:11:19;;;;;;;4.03;1.77;;;17.60;99.90;;;;;;4990665;28;20050;-72
2023/07/06 07:13:49;;;;;;;5.28;1.60;;;17.60;99.90;;;;;;4990393;28;20053;-72
2023/07/06 07:16:15;;;;;;;4.07;1.90;;;17.60;99.90;;;;;;4990316;28;20473;-72
2023/07/06 07:18:43;;;;;;;4.90;1.70;;;17.80;99.90;;;;;;4990328;28;20034;-72
2023/07/06 07:21:10;;;;;;;4.72;2.40;;;17.60;99.90;;;;;;4989674;28;20033;-72
2023/07/06 07:23:43;;;;;;;5.38;1.48;;;17.60;99.90;;;;;;4990247;28;20092;-72
2023/07/06 07:26:10;;;;;;;6.20;1.88;;;17.60;99.90;;;;;;4990324;28;20045;-72
2023/07/06 07:28:37;;;;;;;5.45;1.58;;;17.30;99.90;;;;;;4990003;28;20538;-72
2023/07/06 07:31:03;;;;;;;3.47;1.13;;;17.30;99.90;;;;;;4990210;28;20411;-72
2023/07/06 07:33:29;;;;;;;3.53;1.33;;;17.30;99.90;;;;;;4990369;28;20030;-72
2023/07/06 07:36:00;;;;;;;4.13;1.73;;;17.30;99.90;;;;;;4989947;28;20038;-72
2023/07/06 07:38:26;;;;;;;3.08;1.70;;;17.50;99.90;;;;;;4989967;28;20030;-72
2023/07/06 07:41:03;;;;;;;9.02;2.30;;;17.60;99.90;;;;;;4990119;28;20038;-72
2023/07/06 07:43:35;;;;;;;4.95;2.22;;;17.60;99.90;;;;;;4990201;28;20027;-72
2023/07/06 07:46:04;;;;;;;6.25;2.50;;;17.60;99.90;;;;;;4990403;28;20065;-72
2023/07/06 07:48:32;;;;;;;9.10;2.60;;;17.50;99.90;;;;;;4990045;28;20022;-72
2023/07/06 07:51:01;;;;;;;5.80;2.60;;;17.40;99.90;;;;;;4990023;28;20057;-72
2023/07/06 07:53:30;;;;;;;8.00;3.25;;;17.30;99.90;;;;;;4990095;28;20034;-72
2023/07/06 07:55:56;;;;;;;8.13;3.92;;;17.30;99.90;;;;;;4989830;28;20035;-72
2023/07/06 07:58:22;;;;;;;5.70;2.60;;;17.20;99.90;;;;;;4990009;28;20041;-72
2023/07/06 08:00:52;;;;;;;11.30;5.47;;;17.20;99.90;;;;;;4989486;28;20116;-72
2023/07/06 08:03:18;;;;;;;6.70;3.63;;;17.50;99.90;;;;;;4989645;28;20057;-72
2023/07/06 08:05:44;;;;;;;5.78;3.58;;;17.60;99.90;;;;;;4989723;28;20489;-72
2023/07/06 08:08:10;;;;;;;8.93;4.43;;;17.70;99.90;;;;;;4989599;28;20030;-72
2023/07/06 08:10:39;;;;;;;9.20;4.15;;;17.60;99.90;;;;;;4988400;28;20400;-72
2023/07/06 08:13:06;;;;;;;6.20;3.33;;;17.70;99.90;;;;;;4989236;28;20037;-72
2023/07/06 08:15:32;;;;;;;8.07;4.05;;;17.70;99.90;;;;;;4989732;28;20138;-72
2023/07/06 08:18:00;;;;;;;6.75;3.83;;;17.80;99.90;;;;;;4989462;28;20719;-72
2023/07/06 08:20:28;;;;;;;5.90;4.10;;;17.80;99.90;;;;;;4989365;28;20362;-72
2023/07/06 08:22:57;;;;;;;11.82;5.57;;;17.60;99.90;;;;;;4989621;28;20027;-72
2023/07/06 08:25:25;;;;;;;11.23;4.78;;;17.40;99.90;;;;;;4989055;28;20027;-72
2023/07/06 08:27:52;;;;;;;8.40;4.30;;;17.20;99.90;;;;;;4988718;28;20042;-72
2023/07/06 08:30:20;;;;;;;7.43;3.97;;;17.10;99.90;;;;;;4989305;28;20587;-72
2023/07/06 08:32:48;;;;;;;11.80;4.22;;;17.30;99.90;;;;;;4988613;28;20037;-72
2023/07/06 08:35:17;;;;;;;6.90;4.63;;;17.40;99.90;;;;;;4988009;28;20376;-72
2023/07/06 08:37:46;;;;;;;7.72;3.97;;;17.60;99.90;;;;;;4988029;28;20030;-72
2023/07/06 08:40:17;;;;;;;5.95;3.60;;;17.70;99.90;;;;;;4988395;28;20080;-72
2023/07/06 08:42:47;;;;;;;4.78;2.47;;;17.70;99.90;;;;;;4989566;28;20072;-72
2023/07/06 08:45:21;;;;;;;6.50;2.00;;;17.60;99.90;;;;;;4989390;28;20025;-72
2023/07/06 08:47:48;;;;;;;3.88;1.80;;;17.50;99.90;;;;;;4989535;28;20042;-72
2023/07/06 08:50:20;;;;;;;3.85;2.20;;;17.60;99.90;;;;;;4989264;28;20105;-72
2023/07/06 08:52:46;;;;;;;3.38;1.55;;;17.70;99.90;;;;;;4989061;28;20027;-72
2023/07/06 08:55:15;;;;;;;6.38;2.60;;;17.70;99.90;;;;;;4989014;28;20030;-72
2023/07/06 08:57:44;;;;;;;6.10;3.22;;;17.80;99.90;;;;;;4989029;28;20034;-72
2023/07/06 09:00:25;;;;;;;7.05;3.28;;;17.70;99.90;;;;;;4988721;28;20027;-72
2023/07/06 09:02:59;;;;;;;10.63;4.22;;;17.60;99.90;;;;;;4988842;28;20026;-72
2023/07/06 09:05:31;;;;;;;7.50;3.70;;;17.60;99.90;;;;;;4988864;28;20030;-72
2023/07/06 09:07:57;;;;;;;5.47;3.72;;;17.80;99.90;;;;;;4988705;28;20022;-72
2023/07/06 09:10:26;;;;;;;7.72;4.03;;;17.80;99.90;;;;;;4988671;28;20499;-72
2023/07/06 09:12:53;;;;;;;9.35;4.15;;;18.00;99.90;;;;;;4988758;28;20029;-72
2023/07/06 09:15:28;;;;;;;8.98;4.38;;;18.20;99.90;;;;;;4986121;28;20616;-73
2023/07/06 09:17:59;;;;;;;8.05;4.15;;;18.30;99.90;;;;;;4985977;28;20473;-73
2023/07/06 09:20:26;;;;;;;10.23;4.60;;;18.30;99.90;;;;;;4988164;28;20031;-73
2023/07/06 09:22:53;;;;;;;10.88;3.78;;;18.40;99.90;;;;;;4989079;28;20496;-73
2023/07/06 09:25:28;;;;;;;7.28;4.35;;;18.30;99.90;;;;;;4989171;28;20042;-73
2023/07/06 09:27:56;;;;;;;20.45;4.88;;;18.50;99.90;;;;;;4988994;28;20538;-73
2023/07/06 09:30:32;;;;;;;7.05;3.95;;;18.50;99.90;;;;;;4988774;28;20034;-73
2023/07/06 09:33:20;;;;;;;5.93;3.78;;;18.50;99.90;;;;;;4987770;28;20349;-73
2023/07/06 09:35:54;;;;;;;6.53;3.15;;;18.60;99.90;;;;;;4988701;28;20329;-73
2023/07/06 09:38:20;;;;;;;6.05;2.80;;;18.50;99.90;;;;;;4989031;28;20038;-73
2023/07/06 09:40:46;;;;;;;5.53;2.97;;;18.60;99.90;;;;;;4988600;28;20041;-73
2023/07/06 09:43:37;;;;;;;7.78;2.42;;;18.30;99.90;;;;;;4988778;28;20023;-73
2023/07/06 09:46:04;;;;;;;4.93;2.40;;;18.10;99.90;;;;;;4992299;28;20146;-73
2023/07/06 09:48:38;;;;;;;4.38;2.10;;;18.20;99.90;;;;;;4992130;28;20050;-73
2023/07/06 09:51:12;;;;;;;4.05;1.90;;;18.20;99.90;;;;;;4992073;28;20092;-73
2023/07/06 09:53:50;;;;;;;4.30;2.38;;;18.30;99.90;;;;;;4992353;28;20065;-73
2023/07/06 09:56:16;;;;;;;9.77;2.13;;;18.40;99.90;;;;;;4992192;28;20033;-73
2023/07/06 09:58:45;;;;;;;5.80;3.22;;;18.60;99.90;;;;;;4991912;28;20034;-73
2023/07/06 10:01:32;;;;;;;6.90;3.25;;;18.60;99.90;;;;;;4991861;28;20419;-73
2023/07/06 10:03:58;;;;;;;9.05;3.75;;;18.40;99.90;;;;;;4991835;28;20022;-73
2023/07/06 10:06:29;;;;;;;9.55;3.53;;;18.30;99.90;;;;;;4991831;28;20030;-74
2023/07/06 10:09:03;;;;;;;8.50;3.60;;;18.20;99.90;;;;;;4991927;28;20113;-73
2023/07/06 10:11:49;;;;;;;5.90;3.33;;;18.20;99.90;;;;;;4991283;28;20060;-74
2023/07/06 10:14:33;;;;;;;5.60;3.00;;;18.40;99.90;;;;;;4991533;28;20027;-73
2023/07/06 10:17:19;;;;;;;5.40;3.17;;;18.70;99.90;;;;;;4991521;28;20038;-73
2023/07/06 10:20:12;;;;;;;5.95;2.88;;;18.80;99.90;;;;;;4991555;28;20026;-73
2023/07/06 10:22:43;;;;;;;5.32;2.72;;;19.00;99.90;;;;;;4991512;28;20029;-73
2023/07/06 10:25:09;;;;;;;7.45;3.08;;;19.10;99.90;;;;;;4991284;28;20042;-73
2023/07/06 10:27:40;;;;;;;6.40;3.03;;;18.90;99.90;;;;;;4991183;28;20042;-73
2023/07/06 10:30:16;;;;;;;5.15;3.40;;;18.90;99.90;;;;;;4991149;28;20489;-73
2023/07/06 10:32:48;;;;;;;6.80;3.35;;;18.90;99.90;;;;;;4990815;28;20026;-73
2023/07/06 10:35:34;;;;;;;5.03;2.72;;;19.00;99.90;;;;;;4991101;28;20448;-73
2023/07/06 10:38:01;;;;;;;5.53;3.33;;;18.90;99.90;;;;;;4991268;28;20663;-73
2023/07/06 10:40:29;;;;;;;4.72;2.55;;;18.80;99.90;;;;;;4991320;28;20628;-73
2023/07/06 10:43:13;;;;;;;4.70;2.00;;;18.90;99.90;;;;;;4991386;28;20571;-73
2023/07/06 10:45:56;;;;;;;5.28;2.10;;;18.80;99.90;;;;;;4991213;28;20022;-73
2023/07/06 10:48:25;;;;;;;5.18;2.05;;;19.20;99.90;;;;;;4991216;28;20668;-73
2023/07/06 10:51:17;;;;;;;3.95;1.90;;;19.40;99.90;;;;;;4991180;28;20127;-73
2023/07/06 10:54:14;;;;;;;2.80;1.88;;;19.60;99.90;;;;;;4990417;28;20041;-73
2023/07/06 10:56:47;;;;;;;6.35;2.10;;;19.80;99.90;;;;;;4988652;28;20042;-73
2023/07/06 10:59:17;;;;;;;4.18;2.63;;;19.90;99.90;;;;;;4990845;28;20107;-73
2023/07/06 11:01:45;;;;;;;5.97;1.80;;;19.70;99.90;;;;;;4979368;28;20038;-73
2023/07/06 11:04:51;;;;;;;3.30;1.48;;;19.70;99.90;;;;;;4971154;28;20058;-73
2023/07/06 11:07:38;;;;;;;5.20;2.38;;;20.00;99.90;;;;;;4979129;28;20118;-74
2023/07/06 11:10:25;;;;;;;4.35;2.10;;;19.80;99.90;;;;;;4971185;28;20033;-73
2023/07/06 11:12:52;;;;;;;5.32;2.08;;;19.90;99.90;;;;;;4971087;28;20037;-73
2023/07/06 11:15:21;;;;;;;7.28;2.70;;;20.10;99.90;;;;;;4970961;28;20031;-73
2023/07/06 11:17:51;;;;;;;4.88;2.90;;;20.10;99.90;;;;;;4970950;28;20052;-73
2023/07/06 11:20:26;;;;;;;4.85;2.42;;;20.10;99.90;;;;;;4970931;28;20054;-73
2023/07/06 11:23:03;;;;;;;5.47;2.80;;;20.00;99.90;;;;;;4970815;28;20077;-73
2023/07/06 11:25:31;;;;;;;8.15;6.20;;;19.70;99.90;;;;;;4970705;28;20031;-74
2023/07/06 11:28:02;;;;;;;5.03;3.13;;;19.70;99.90;;;;;;4970423;28;20039;-73
2023/07/06 11:30:35;;;;;;;5.55;2.47;;;19.60;99.90;;;;;;4970382;28;20026;-73
2023/07/06 11:33:10;;;;;;;6.13;3.08;;;19.60;99.90;;;;;;4970000;28;20558;-73
2023/07/06 11:36:06;;;;;;;6.68;3.13;;;19.70;99.90;;;;;;4970263;28;20078;-73
2023/07/06 11:39:00;;;;;;;6.65;2.80;;;19.90;99.90;;;;;;4969891;28;20085;-73
2023/07/06 11:41:53;;;;;;;5.57;2.80;;;19.90;99.90;;;;;;4970179;28;20377;-73
2023/07/06 11:44:51;;;;;;;4.15;2.75;;;20.00;99.90;;;;;;4970594;28;20301;-73
2023/07/06 11:47:25;;;;;;;5.28;2.58;;;20.10;99.90;;;;;;4970181;28;20030;-73
2023/07/06 11:49:59;;;;;;;6.45;3.22;;;20.20;99.90;;;;;;4970333;28;20027;-73
2023/07/06 11:52:42;;;;;;;4.75;2.33;;;20.20;99.90;;;;;;4970607;28;20031;-73
2023/07/06 11:55:28;;;;;;;4.40;2.20;;;20.40;99.90;;;;;;4970567;28;20031;-73
2023/07/06 11:58:18;;;;;;;5.47;2.50;;;20.50;99.90;;;;;;4970404;28;20042;-73
2023/07/06 12:00:50;;;;;;;3.83;2.60;;;20.60;99.90;;;;;;4970225;28;20027;-73
2023/07/06 12:03:19;;;;;;;8.43;2.70;;;21.00;99.90;;;;;;4970393;28;20389;-73
2023/07/06 12:05:50;;;;;;;5.78;2.15;;;21.30;99.90;;;;;;4970579;28;20026;-73
2023/07/06 12:08:20;;;;;;;5.65;2.70;;;21.10;99.90;;;;;;4969714;28;20470;-73
2023/07/06 12:10:51;;;;;;;3.95;1.90;;;20.80;99.90;;;;;;4969864;28;20465;-73
2023/07/06 12:13:26;;;;;;;3.85;1.80;;;20.70;99.90;;;;;;4969976;28;20027;-73
2023/07/06 12:16:14;;;;;;;7.05;1.95;;;20.80;99.90;;;;;;4969898;28;20027;-73
2023/07/06 12:18:42;;;;;;;4.63;2.00;;;20.90;99.90;;;;;;4969896;28;20030;-73
2023/07/06 12:21:34;;;;;;;6.22;2.20;;;21.30;99.90;;;;;;4969125;28;20082;-73
2023/07/06 12:24:01;;;;;;;4.25;2.10;;;21.60;99.90;;;;;;4969469;28;20117;-73
2023/07/06 12:26:29;;;;;;;4.78;2.25;;;21.70;99.90;;;;;;4969913;28;20022;-73
2023/07/06 12:28:59;;;;;;;6.50;2.30;;;21.30;99.90;;;;;;4969583;28;20085;-73
2023/07/06 12:31:27;;;;;;;5.07;1.85;;;21.40;99.90;;;;;;4969678;28;20039;-73
2023/07/06 12:34:00;;;;;;;3.40;1.75;;;21.70;99.90;;;;;;4970072;28;20019;-73
2023/07/06 12:36:31;;;;;;;3.47;1.73;;;21.80;99.90;;;;;;4969712;28;20070;-73
2023/07/06 12:39:01;;;;;;;4.45;2.13;;;22.00;99.90;;;;;;4970100;28;20023;-73
2023/07/06 12:41:34;;;;;;;3.45;1.58;;;22.10;99.90;;;;;;4970000;28;20042;-73
2023/07/06 12:44:00;;;;;;;4.05;2.10;;;22.40;99.90;;;;;;4969709;28;20061;-73
2023/07/06 12:46:32;;;;;;;6.07;1.70;;;22.30;99.90;;;;;;4970056;28;20027;-73
2023/07/06 12:49:05;;;;;;;3.95;2.13;;;22.00;99.90;;;;;;4969715;28;20429;-73
2023/07/06 12:51:32;;;;;;;4.13;1.80;;;22.20;99.90;;;;;;4969719;28;20062;-73
2023/07/06 12:53:58;;;;;;;7.05;1.83;;;22.20;99.90;;;;;;4969746;28;20059;-73
2023/07/06 12:56:28;;;;;;;3.30;1.60;;;22.40;99.90;;;;;;4967823;28;20058;-73
2023/07/06 12:59:01;;;;;;;6.78;2.25;;;22.20;99.90;;;;;;4969233;28;20101;-73
2023/07/06 13:01:36;;;;;;;3.53;1.70;;;22.40;99.90;;;;;;4969347;28;20512;-73